Time;durP1;ratioP1;P1;durP2;ratioP2;P2;SDS_P1;SDS_P2;PMS_P1;PMS_P2;Temp;Humidity;BMP_temperature;BMP_pressure;BME280_temperature;BME280_humidity;BME280_pressure;Samples;Min_cycle;Max_cycle;Signal;HPM_P1;HPM_P2
2023/07/29 00:00:00;;;;;;;0.63;0.60;;;;;;;19.69;98.10;98979.03;337832;28;5237;-67
2023/07/29 00:00:12;;;;;;;0.73;0.70;;;;;;;19.69;97.90;98977.22;337202;28;9819;-67
2023/07/29 00:00:27;;;;;;;0.80;0.60;;;;;;;19.70;98.22;98972.81;338585;28;4518;-68
2023/07/29 00:00:39;;;;;;;0.75;0.50;;;;;;;19.72;98.09;98984.09;335140;28;18271;-67
2023/07/29 00:00:51;;;;;;;0.77;0.60;;;;;;;19.74;98.11;98979.53;338694;28;5197;-68
2023/07/29 00:01:03;;;;;;;0.80;0.70;;;;;;;19.74;97.99;98979.53;336963;28;18254;-67
2023/07/29 00:01:15;;;;;;;1.10;0.70;;;;;;;19.74;97.96;98984.81;339069;28;4524;-68
2023/07/29 00:01:27;;;;;;;0.93;0.68;;;;;;;19.75;97.76;98981.19;337149;28;5320;-69
2023/07/29 00:01:41;;;;;;;0.68;0.55;;;;;;;19.74;97.89;98974.25;338671;28;17603;-68
2023/07/29 00:01:54;;;;;;;0.50;0.47;;;;;;;19.76;97.95;98977.59;337403;28;18722;-68
2023/07/29 00:02:06;;;;;;;0.80;0.50;;;;;;;19.78;97.88;98986.22;340244;28;4532;-68
2023/07/29 00:02:18;;;;;;;1.05;0.60;;;;;;;19.80;97.66;98975.53;336535;28;16554;-67
2023/07/29 00:02:32;;;;;;;0.90;0.50;;;;;;;19.79;97.63;98977.34;340051;28;5264;-67
2023/07/29 00:02:44;;;;;;;0.52;0.40;;;;;;;19.80;97.52;98979.03;337647;28;17882;-67
2023/07/29 00:02:56;;;;;;;0.70;0.60;;;;;;;19.81;97.45;98982.50;341403;28;5218;-68
2023/07/29 00:03:09;;;;;;;1.00;0.70;;;;;;;19.77;97.52;98981.91;338169;28;18620;-68
2023/07/29 00:03:22;;;;;;;0.95;0.80;;;;;;;19.77;97.22;98979.25;339539;28;5196;-67
2023/07/29 00:03:34;;;;;;;0.68;0.68;;;;;;;19.78;96.96;98978.31;337620;28;12957;-67
2023/07/29 00:03:46;;;;;;;0.63;0.57;;;;;;;19.76;97.41;98972.34;335308;28;4642;-66
2023/07/29 00:03:58;;;;;;;0.63;0.60;;;;;;;19.77;97.32;98979.25;339935;28;5226;-68
2023/07/29 00:04:12;;;;;;;1.67;0.88;;;;;;;19.78;97.54;98978.31;337553;28;19427;-68
2023/07/29 00:04:24;;;;;;;1.80;0.90;;;;;;;19.79;97.48;98979.16;337635;28;11587;-67
2023/07/29 00:04:36;;;;;;;1.05;0.70;;;;;;;19.79;97.02;98976.50;340149;28;4488;-65
2023/07/29 00:04:48;;;;;;;0.90;0.75;;;;;;;19.80;97.19;98979.03;339611;28;5212;-67
2023/07/29 00:05:00;;;;;;;0.60;0.60;;;;;;;19.82;97.32;98978.88;334044;28;18237;-69
2023/07/29 00:05:11;;;;;;;0.60;0.60;;;;;;;19.84;97.27;98982.22;340460;28;5396;-68
2023/07/29 00:05:23;;;;;;;0.55;0.50;;;;;;;19.84;97.19;98975.19;337715;28;11263;-69
2023/07/29 00:05:39;;;;;;;0.80;0.60;;;;;;;19.85;97.29;98976.00;339838;28;5195;-67
2023/07/29 00:05:51;;;;;;;0.75;0.60;;;;;;;19.86;97.14;98978.53;338092;28;18621;-67
2023/07/29 00:06:03;;;;;;;0.65;0.60;;;;;;;19.86;97.13;98973.25;341590;28;4681;-68
2023/07/29 00:06:15;;;;;;;0.65;0.65;;;;;;;19.84;97.11;98975.19;335958;28;18420;-67
2023/07/29 00:06:27;;;;;;;0.60;0.60;;;;;;;19.82;97.29;98977.09;338276;28;4563;-68
2023/07/29 00:06:39;;;;;;;0.80;0.80;;;;;;;19.82;97.41;98977.09;334976;28;5663;-68
2023/07/29 00:06:51;;;;;;;0.70;0.70;;;;;;;19.81;97.40;98972.78;337619;28;19400;-67
2023/07/29 00:07:04;;;;;;;0.70;0.70;;;;;;;19.83;97.50;98970.84;341186;28;4674;-68
2023/07/29 00:07:16;;;;;;;0.65;0.65;;;;;;;19.82;97.76;98968.31;336768;28;18130;-68
2023/07/29 00:07:28;;;;;;;0.70;0.60;;;;;;;19.84;97.86;98974.31;340247;28;4698;-68
2023/07/29 00:07:39;;;;;;;0.90;0.70;;;;;;;19.86;97.39;98970.59;337642;28;5059;-69
2023/07/29 00:07:51;;;;;;;0.88;0.70;;;;;;;19.86;97.46;98962.69;340171;28;4682;-67
2023/07/29 00:08:04;;;;;;;0.98;0.73;;;;;;;19.86;97.36;98961.84;339944;28;5866;-68
2023/07/29 00:08:16;;;;;;;0.70;0.70;;;;;;;19.86;97.07;98973.25;332120;28;12003;-68
2023/07/29 00:08:28;;;;;;;1.00;0.80;;;;;;;19.88;96.88;98968.69;340192;28;4494;-66
2023/07/29 00:08:40;;;;;;;1.00;0.73;;;;;;;19.86;97.09;98967.97;339794;28;4483;-65
2023/07/29 00:08:52;;;;;;;1.00;0.80;;;;;;;19.88;97.13;98960.78;337446;28;17846;-68
2023/07/29 00:09:04;;;;;;;0.70;0.70;;;;;;;19.88;97.36;98966.03;341559;28;5332;-68
2023/07/29 00:09:16;;;;;;;0.70;0.70;;;;;;;19.88;97.33;98971.31;336414;28;12750;-67
2023/07/29 00:09:28;;;;;;;0.60;0.60;;;;;;;19.89;97.45;98972.97;338757;28;4682;-66
2023/07/29 00:09:40;;;;;;;0.55;0.55;;;;;;;19.89;97.17;98965.06;339316;28;5287;-67
2023/07/29 00:09:52;;;;;;;0.50;0.50;;;;;;;19.91;97.41;98975.50;333146;28;11217;-69
2023/07/29 00:10:04;;;;;;;0.60;0.60;;;;;;;19.91;97.43;98963.13;341463;28;5689;-68
2023/07/29 00:10:16;;;;;;;0.82;0.75;;;;;;;19.91;97.44;98963.13;339070;28;4742;-68
2023/07/29 00:10:31;;;;;;;0.90;0.75;;;;;;;19.90;97.68;98969.41;332618;28;18580;-68
2023/07/29 00:10:43;;;;;;;1.00;0.60;;;;;;;19.91;97.22;98968.41;337113;28;17971;-68
2023/07/29 00:10:55;;;;;;;1.90;0.68;;;;;;;19.91;97.32;98960.50;339703;28;4638;-67
2023/07/29 00:11:07;;;;;;;1.70;0.80;;;;;;;19.91;97.26;98965.78;340741;28;12096;-68
2023/07/29 00:11:19;;;;;;;1.63;1.00;;;;;;;19.91;97.26;98965.78;337301;28;19316;-68
2023/07/29 00:11:33;;;;;;;1.40;1.00;;;;;;;19.91;96.90;98960.50;335676;28;4670;-67
2023/07/29 00:11:45;;;;;;;1.15;0.90;;;;;;;19.91;96.90;98963.13;337127;28;17883;-68
2023/07/29 00:11:57;;;;;;;1.00;0.90;;;;;;;19.91;97.36;98963.13;340683;28;4676;-67
2023/07/29 00:12:09;;;;;;;0.93;0.80;;;;;;;19.90;97.29;98961.47;337457;28;18255;-68
2023/07/29 00:12:21;;;;;;;0.88;0.80;;;;;;;19.93;97.42;98963.03;340391;28;4728;-68
2023/07/29 00:12:33;;;;;;;1.10;0.80;;;;;;;19.91;97.59;98960.50;337508;28;18060;-68
2023/07/29 00:12:45;;;;;;;1.13;0.80;;;;;;;19.92;97.24;98967.47;340398;28;4676;-68
2023/07/29 00:12:58;;;;;;;1.33;0.88;;;;;;;19.90;97.53;98964.13;340142;28;4878;-68
2023/07/29 00:13:10;;;;;;;1.27;1.00;;;;;;;19.90;97.59;98961.47;337442;28;17610;-68
2023/07/29 00:13:22;;;;;;;1.25;1.00;;;;;;;19.91;98.05;98960.50;339252;28;5228;-68
2023/07/29 00:13:34;;;;;;;0.80;0.75;;;;;;;19.91;98.21;98957.88;337321;28;12583;-69
2023/07/29 00:13:47;;;;;;;0.70;0.63;;;;;;;19.91;97.65;98955.22;339958;28;4759;-68
2023/07/29 00:14:02;;;;;;;0.80;0.77;;;;;;;19.94;97.78;98962.03;338889;28;11276;-69
2023/07/29 00:14:14;;;;;;;0.82;0.80;;;;;;;19.91;97.81;98955.22;336228;28;11556;-69
2023/07/29 00:14:26;;;;;;;0.93;0.90;;;;;;;19.93;97.82;98953.31;338322;28;4754;-68
2023/07/29 00:14:38;;;;;;;0.80;0.80;;;;;;;19.97;97.70;98959.16;338593;28;4536;-67
2023/07/29 00:14:50;;;;;;;0.60;0.60;;;;;;;19.95;97.85;98961.09;334667;28;18080;-68
2023/07/29 00:15:02;;;;;;;0.50;0.50;;;;;;;19.97;97.96;98956.53;336812;28;4673;-68
2023/07/29 00:15:14;;;;;;;0.60;0.60;;;;;;;19.98;97.82;98954.72;334820;28;16499;-69
2023/07/29 00:15:26;;;;;;;0.68;0.68;;;;;;;19.99;97.77;98956.41;337517;28;4540;-66
2023/07/29 00:15:38;;;;;;;0.70;0.70;;;;;;;19.97;98.06;98958.34;337380;28;5450;-67
2023/07/29 00:15:53;;;;;;;0.90;0.70;;;;;;;19.95;98.13;98959.28;333788;28;18672;-67
2023/07/29 00:16:06;;;;;;;1.00;0.70;;;;;;;19.95;98.16;98956.66;335131;28;4641;-68
2023/07/29 00:16:21;;;;;;;0.68;0.68;;;;;;;19.98;98.01;98954.72;339660;28;4655;-68
2023/07/29 00:16:33;;;;;;;0.60;0.60;;;;;;;19.99;97.96;98956.41;336499;28;18204;-68
2023/07/29 00:16:46;;;;;;;0.73;0.70;;;;;;;19.99;97.97;98961.69;336000;28;16918;-68
2023/07/29 00:16:58;;;;;;;0.70;0.70;;;;;;;19.99;97.98;98956.41;339734;28;5242;-67
2023/07/29 00:17:10;;;;;;;0.75;0.75;;;;;;;20.01;98.04;98949.22;337286;28;17719;-68
2023/07/29 00:17:22;;;;;;;0.50;0.50;;;;;;;19.99;98.09;98951.13;334923;28;4613;-67
2023/07/29 00:17:34;;;;;;;0.52;0.52;;;;;;;19.99;98.13;98951.13;339757;28;4698;-68
2023/07/29 00:17:46;;;;;;;0.60;0.60;;;;;;;20.00;98.36;98958.06;337746;28;18125;-66
2023/07/29 00:17:58;;;;;;;0.73;0.68;;;;;;;20.02;98.04;98953.50;340277;28;4754;-67
2023/07/29 00:18:10;;;;;;;0.75;0.60;;;;;;;20.03;97.87;98949.91;333169;28;4829;-68
2023/07/29 00:18:23;;;;;;;0.70;0.50;;;;;;;20.04;97.74;98954.22;340077;28;4664;-67
2023/07/29 00:18:35;;;;;;;0.50;0.50;;;;;;;20.06;97.81;98952.28;338004;28;16268;-66
2023/07/29 00:18:49;;;;;;;0.50;0.50;;;;;;;20.05;97.73;98950.63;337179;28;18133;-67
2023/07/29 00:19:02;;;;;;;0.63;0.52;;;;;;;20.07;97.59;98948.69;336640;28;17907;-68
2023/07/29 00:19:14;;;;;;;0.60;0.50;;;;;;;20.07;97.43;98953.97;340869;28;4752;-66
2023/07/29 00:19:28;;;;;;;0.60;0.50;;;;;;;20.09;97.39;98946.75;337199;28;17793;-67
2023/07/29 00:19:40;;;;;;;0.55;0.50;;;;;;;20.09;97.67;98952.03;339980;28;4714;-68
2023/07/29 00:19:52;;;;;;;0.80;0.60;;;;;;;20.11;97.41;98955.38;337083;28;17961;-67
2023/07/29 00:20:05;;;;;;;0.70;0.52;;;;;;;20.12;97.36;98951.78;340160;28;4705;-68
2023/07/29 00:20:20;;;;;;;0.60;0.40;;;;;;;20.13;97.56;98953.47;335758;28;18086;-68
2023/07/29 00:20:32;;;;;;;0.60;0.50;;;;;;;20.15;97.32;98951.53;326832;28;17714;-66
2023/07/29 00:20:44;;;;;;;0.85;0.50;;;;;;;20.17;97.61;98954.03;339453;28;5501;-66
2023/07/29 00:20:56;;;;;;;1.40;0.60;;;;;;;20.18;97.59;98953.06;336668;28;11918;-69
2023/07/29 00:21:08;;;;;;;1.02;0.60;;;;;;;20.19;97.33;98952.94;339144;28;4641;-67
2023/07/29 00:21:20;;;;;;;0.68;0.60;;;;;;;20.20;97.16;98951.13;340183;28;5048;-68
2023/07/29 00:21:32;;;;;;;0.70;0.60;;;;;;;20.20;97.37;98941.41;336717;28;19254;-68
2023/07/29 00:21:44;;;;;;;0.70;0.52;;;;;;;20.20;97.05;98949.31;339860;28;4503;-68
2023/07/29 00:21:56;;;;;;;0.50;0.50;;;;;;;20.21;96.96;98951.00;339653;28;5413;-68
2023/07/29 00:22:08;;;;;;;0.52;0.50;;;;;;;20.22;96.79;98952.69;334000;28;11494;-69
2023/07/29 00:22:20;;;;;;;0.82;0.45;;;;;;;20.22;97.04;98947.44;341091;28;4500;-67
2023/07/29 00:22:32;;;;;;;0.77;0.40;;;;;;;20.22;97.09;98947.44;340376;28;4684;-68
2023/07/29 00:22:44;;;;;;;0.90;0.50;;;;;;;20.22;97.02;98947.44;332489;28;18199;-68
2023/07/29 00:22:58;;;;;;;0.75;0.50;;;;;;;20.24;96.99;98945.50;340240;28;4836;-67
2023/07/29 00:23:10;;;;;;;0.57;0.50;;;;;;;20.24;96.72;98948.13;337475;28;18047;-68
2023/07/29 00:23:22;;;;;;;0.50;0.50;;;;;;;20.25;96.97;98944.50;339407;28;4857;-67
2023/07/29 00:23:34;;;;;;;0.73;0.50;;;;;;;20.27;96.60;98952.31;337565;28;11450;-69
2023/07/29 00:23:46;;;;;;;0.73;0.50;;;;;;;20.29;96.89;98959.13;335265;28;5404;-67
2023/07/29 00:23:58;;;;;;;0.77;0.47;;;;;;;20.27;96.93;98945.22;340500;28;4578;-68
2023/07/29 00:24:10;;;;;;;0.60;0.60;;;;;;;20.27;96.83;98945.22;337079;28;18689;-68
2023/07/29 00:24:22;;;;;;;0.52;0.50;;;;;;;20.27;96.79;98944.38;340505;28;4779;-68
2023/07/29 00:24:34;;;;;;;0.47;0.40;;;;;;;20.28;96.80;98941.63;337604;28;18135;-69
2023/07/29 00:24:51;;;;;;;0.45;0.40;;;;;;;20.30;96.88;98944.97;339658;28;4831;-66
2023/07/29 00:25:04;;;;;;;0.60;0.50;;;;;;;20.28;96.93;98952.19;340122;28;18715;-68
2023/07/29 00:25:16;;;;;;;0.50;0.50;;;;;;;20.30;96.63;98938.84;331513;28;18173;-69
2023/07/29 00:25:28;;;;;;;0.40;0.40;;;;;;;20.31;96.64;98946.63;338485;28;4691;-68
2023/07/29 00:25:40;;;;;;;0.43;0.43;;;;;;;20.31;96.73;98946.63;336573;28;18149;-69
2023/07/29 00:25:52;;;;;;;0.50;0.50;;;;;;;20.29;96.72;98943.28;339915;28;5173;-68
2023/07/29 00:26:04;;;;;;;0.55;0.55;;;;;;;20.28;96.91;98946.91;340204;28;5195;-67
2023/07/29 00:26:16;;;;;;;0.70;0.70;;;;;;;20.30;96.71;98950.25;337565;28;17940;-68
2023/07/29 00:26:31;;;;;;;0.70;0.70;;;;;;;20.30;96.52;98944.97;339804;28;4710;-68
2023/07/29 00:26:43;;;;;;;0.50;0.50;;;;;;;20.30;96.78;98944.97;337382;28;17890;-67
2023/07/29 00:26:54;;;;;;;0.40;0.40;;;;;;;20.29;96.68;98948.56;335310;28;4736;-67
2023/07/29 00:27:07;;;;;;;0.40;0.40;;;;;;;20.31;96.53;98940.53;337133;28;17889;-67
2023/07/29 00:27:19;;;;;;;0.35;0.30;;;;;;;20.32;96.52;98948.31;340453;28;4481;-68
2023/07/29 00:27:31;;;;;;;0.28;0.28;;;;;;;20.32;96.96;98943.03;337474;28;12753;-69
2023/07/29 00:27:43;;;;;;;0.20;0.20;;;;;;;20.33;96.63;98943.88;340036;28;4631;-68
2023/07/29 00:27:56;;;;;;;0.30;0.30;;;;;;;20.32;96.66;98944.81;340282;28;5570;-68
2023/07/29 00:28:11;;;;;;;0.43;0.43;;;;;;;20.31;96.73;98941.34;336495;28;18078;-68
2023/07/29 00:28:23;;;;;;;0.63;0.55;;;;;;;20.31;96.75;98946.63;335883;28;18020;-68
2023/07/29 00:28:35;;;;;;;0.60;0.50;;;;;;;20.31;96.85;98945.81;338928;28;5232;-67
2023/07/29 00:28:47;;;;;;;0.60;0.50;;;;;;;20.31;96.67;98944.00;335932;28;19557;-67
2023/07/29 00:28:59;;;;;;;0.50;0.50;;;;;;;20.31;96.62;98949.28;339295;28;5386;-68
2023/07/29 00:29:11;;;;;;;0.70;0.60;;;;;;;20.33;96.28;98949.16;339867;28;4492;-67
2023/07/29 00:29:23;;;;;;;0.90;0.60;;;;;;;20.34;96.18;98954.31;336205;28;18258;-66
2023/07/29 00:29:35;;;;;;;1.20;0.60;;;;;;;20.33;96.18;98947.34;339339;28;5458;-67
2023/07/29 00:29:47;;;;;;;1.00;0.63;;;;;;;20.31;95.94;98945.81;338694;28;18180;-67
2023/07/29 00:29:59;;;;;;;0.77;0.60;;;;;;;20.27;95.50;98949.66;335686;28;18117;-68
2023/07/29 00:30:11;;;;;;;0.77;0.60;;;;;;;20.24;95.56;98940.22;335233;28;4715;-68
2023/07/29 00:30:23;;;;;;;0.98;0.50;;;;;;;20.23;95.71;98938.53;337232;28;18198;-68
2023/07/29 00:30:36;;;;;;;0.70;0.50;;;;;;;20.24;95.97;98945.50;338877;28;5970;-67
2023/07/29 00:30:48;;;;;;;0.70;0.50;;;;;;;20.24;96.12;98945.50;336188;28;11724;-67
2023/07/29 00:31:00;;;;;;;0.70;0.60;;;;;;;20.26;96.12;98954.13;340004;28;4674;-67
2023/07/29 00:31:12;;;;;;;0.60;0.52;;;;;;;20.26;96.19;98948.84;339733;28;5445;-68
2023/07/29 00:31:24;;;;;;;0.45;0.45;;;;;;;20.27;96.08;98945.22;337210;28;18085;-69
2023/07/29 00:31:36;;;;;;;0.60;0.45;;;;;;;20.27;95.74;98950.50;340276;28;5129;-67
2023/07/29 00:31:48;;;;;;;0.70;0.50;;;;;;;20.27;96.16;98953.13;336385;28;11752;-69
2023/07/29 00:32:00;;;;;;;0.60;0.50;;;;;;;20.28;96.18;98952.19;339637;28;4681;-68
2023/07/29 00:32:12;;;;;;;0.50;0.50;;;;;;;20.28;96.45;98952.19;340223;28;5399;-67
2023/07/29 00:32:27;;;;;;;0.60;0.50;;;;;;;20.28;96.03;98952.19;336820;28;18478;-68
2023/07/29 00:32:39;;;;;;;0.50;0.50;;;;;;;20.28;96.42;98946.91;337248;28;17934;-68
2023/07/29 00:32:51;;;;;;;0.70;0.50;;;;;;;20.28;96.37;98941.63;338973;28;4661;-68
2023/07/29 00:33:03;;;;;;;0.60;0.40;;;;;;;20.28;96.31;98946.91;333725;28;6062;-67
2023/07/29 00:33:15;;;;;;;0.40;0.40;;;;;;;20.28;96.44;98948.69;338864;28;18206;-68
2023/07/29 00:33:27;;;;;;;0.40;0.40;;;;;;;20.27;96.21;98950.50;338730;28;4670;-67
2023/07/29 00:33:39;;;;;;;0.40;0.40;;;;;;;20.27;96.32;98945.22;336220;28;18844;-68
2023/07/29 00:33:52;;;;;;;0.40;0.40;;;;;;;20.28;96.57;98943.41;339719;28;4558;-67
2023/07/29 00:34:04;;;;;;;0.40;0.40;;;;;;;20.28;96.49;98946.03;337370;28;16393;-69
2023/07/29 00:34:19;;;;;;;0.47;0.40;;;;;;;20.28;96.42;98941.63;337891;28;5302;-67
2023/07/29 00:34:31;;;;;;;0.70;0.40;;;;;;;20.25;96.44;98947.16;336929;28;17731;-71
2023/07/29 00:34:43;;;;;;;0.73;0.40;;;;;;;20.26;96.61;98948.84;338829;28;4511;-67
2023/07/29 00:34:55;;;;;;;0.60;0.60;;;;;;;20.26;96.45;98946.19;335218;28;18143;-67
2023/07/29 00:35:08;;;;;;;0.50;0.50;;;;;;;20.26;96.16;98943.56;339084;28;5190;-67
2023/07/29 00:35:20;;;;;;;0.70;0.50;;;;;;;20.27;96.53;98950.50;336115;28;18153;-68
2023/07/29 00:35:32;;;;;;;0.80;0.50;;;;;;;20.28;96.21;98944.28;338580;28;5280;-67
2023/07/29 00:35:44;;;;;;;0.55;0.50;;;;;;;20.28;96.12;98946.91;338353;28;18094;-68
2023/07/29 00:35:56;;;;;;;0.63;0.50;;;;;;;20.29;95.85;98951.19;330792;28;19209;-69
2023/07/29 00:36:08;;;;;;;0.50;0.50;;;;;;;20.27;95.93;98945.22;339174;28;5174;-67
2023/07/29 00:36:20;;;;;;;0.60;0.50;;;;;;;20.27;96.29;98942.56;336692;28;18646;-69
2023/07/29 00:36:32;;;;;;;0.65;0.47;;;;;;;20.28;96.06;98944.28;340280;28;5484;-67
2023/07/29 00:36:45;;;;;;;0.75;0.60;;;;;;;20.27;95.79;98945.22;338117;28;11506;-69
2023/07/29 00:36:57;;;;;;;0.98;0.60;;;;;;;20.27;95.87;98937.31;339733;28;16692;-67
2023/07/29 00:37:10;;;;;;;0.73;0.40;;;;;;;20.27;96.17;98934.66;338341;28;11185;-68
2023/07/29 00:37:22;;;;;;;0.70;0.50;;;;;;;20.28;96.29;98936.34;338237;28;18599;-68
2023/07/29 00:37:34;;;;;;;0.50;0.50;;;;;;;20.26;96.08;98943.56;340161;28;4865;-67
2023/07/29 00:37:46;;;;;;;0.60;0.60;;;;;;;20.25;96.24;98947.16;337400;28;16957;-69
2023/07/29 00:37:58;;;;;;;0.80;0.60;;;;;;;20.23;96.63;98943.81;339739;28;5455;-67
2023/07/29 00:38:10;;;;;;;0.75;0.65;;;;;;;20.22;96.95;98941.28;340220;28;4934;-67
2023/07/29 00:38:22;;;;;;;0.75;0.60;;;;;;;20.20;97.10;98941.41;337539;28;17874;-68
2023/07/29 00:38:34;;;;;;;0.52;0.50;;;;;;;20.18;97.30;98943.34;340393;28;5576;-68
2023/07/29 00:38:46;;;;;;;0.88;0.60;;;;;;;20.18;96.92;98940.69;337682;28;18403;-69
2023/07/29 00:38:58;;;;;;;0.90;0.60;;;;;;;20.19;97.05;98941.56;335102;28;5976;-67
2023/07/29 00:39:10;;;;;;;0.95;0.50;;;;;;;20.20;96.97;98938.78;339750;28;5632;-67
2023/07/29 00:39:22;;;;;;;0.80;0.40;;;;;;;20.21;97.01;98943.09;337258;28;17981;-68
2023/07/29 00:39:34;;;;;;;0.80;0.60;;;;;;;20.21;96.87;98943.09;340479;28;5262;-68
2023/07/29 00:39:46;;;;;;;0.60;0.60;;;;;;;20.22;96.92;98942.16;337312;28;18339;-69
2023/07/29 00:39:58;;;;;;;0.60;0.52;;;;;;;20.23;97.04;98942.97;339796;28;5227;-67
2023/07/29 00:40:21;;;;;;;0.60;0.55;;;;;;;20.23;96.74;98938.53;339861;28;4683;-68
2023/07/29 00:40:36;;;;;;;0.70;0.60;;;;;;;20.22;96.71;98942.16;331720;28;17538;-67
2023/07/29 00:40:48;;;;;;;0.70;0.70;;;;;;;20.20;96.94;98943.22;335603;28;17900;-66
2023/07/29 00:41:02;;;;;;;0.60;0.60;;;;;;;20.18;97.54;98948.63;339688;28;4679;-67
2023/07/29 00:41:14;;;;;;;0.68;0.60;;;;;;;20.18;97.25;98947.78;337327;28;18089;-67
2023/07/29 00:41:26;;;;;;;0.52;0.50;;;;;;;20.18;97.33;98942.50;340032;28;5403;-68
2023/07/29 00:41:39;;;;;;;0.50;0.50;;;;;;;20.20;97.12;98945.84;337487;28;18050;-68
2023/07/29 00:41:51;;;;;;;0.50;0.50;;;;;;;20.20;97.03;98941.41;335171;28;4635;-67
2023/07/29 00:42:04;;;;;;;0.70;0.60;;;;;;;20.21;97.07;98940.47;336786;28;19034;-66
2023/07/29 00:42:16;;;;;;;0.70;0.60;;;;;;;20.21;96.87;98943.09;341727;28;4734;-67
2023/07/29 00:42:28;;;;;;;0.80;0.60;;;;;;;20.22;97.10;98942.16;338997;28;18195;-68
2023/07/29 00:42:42;;;;;;;0.73;0.60;;;;;;;20.23;96.85;98937.69;338940;28;4566;-67
2023/07/29 00:42:54;;;;;;;0.73;0.60;;;;;;;20.22;97.20;98942.16;337318;28;18104;-68
2023/07/29 00:43:06;;;;;;;0.90;0.68;;;;;;;20.19;97.08;98947.66;340367;28;4911;-68
2023/07/29 00:43:18;;;;;;;0.70;0.60;;;;;;;20.18;97.42;98940.69;338622;28;18219;-68
2023/07/29 00:43:30;;;;;;;0.88;0.70;;;;;;;20.20;97.47;98941.41;339160;28;4529;-68
2023/07/29 00:43:42;;;;;;;0.85;0.70;;;;;;;20.19;97.24;98937.13;340055;28;4677;-67
2023/07/29 00:43:54;;;;;;;0.77;0.75;;;;;;;20.20;97.08;98937.94;337470;28;18514;-68
2023/07/29 00:44:06;;;;;;;0.77;0.70;;;;;;;20.20;97.11;98948.50;340166;28;5480;-68
2023/07/29 00:44:18;;;;;;;0.60;0.60;;;;;;;20.20;96.86;98940.56;337803;28;18070;-69
2023/07/29 00:44:31;;;;;;;0.60;0.60;;;;;;;20.19;97.06;98942.38;340263;28;4989;-68
2023/07/29 00:44:43;;;;;;;0.60;0.60;;;;;;;20.18;96.89;98940.69;339549;28;18247;-68
2023/07/29 00:44:55;;;;;;;0.50;0.50;;;;;;;20.13;96.82;98937.63;337598;28;17950;-67
2023/07/29 00:45:08;;;;;;;0.63;0.60;;;;;;;20.11;96.83;98937.75;335624;28;4689;-66
2023/07/29 00:45:20;;;;;;;0.70;0.60;;;;;;;20.11;97.18;98944.84;337493;28;17424;-68
2023/07/29 00:45:32;;;;;;;0.63;0.52;;;;;;;20.12;97.18;98935.94;340108;28;4740;-67
2023/07/29 00:45:45;;;;;;;0.50;0.50;;;;;;;20.13;97.32;98942.91;337055;28;17844;-69
2023/07/29 00:46:00;;;;;;;0.60;0.60;;;;;;;20.14;97.14;98928.72;340058;28;4912;-68
2023/07/29 00:46:12;;;;;;;0.60;0.60;;;;;;;20.15;97.12;98935.69;337123;28;17939;-67
2023/07/29 00:46:25;;;;;;;0.60;0.60;;;;;;;20.15;97.02;98930.41;337916;28;6013;-68
2023/07/29 00:46:38;;;;;;;0.80;0.80;;;;;;;20.17;97.14;98932.94;340347;28;4556;-67
2023/07/29 00:46:52;;;;;;;0.95;0.85;;;;;;;20.17;97.15;98936.41;337101;28;18037;-68
2023/07/29 00:47:06;;;;;;;0.65;0.60;;;;;;;20.18;97.13;98929.31;338247;28;15970;-68
2023/07/29 00:47:20;;;;;;;0.60;0.60;;;;;;;20.18;97.00;98934.59;338831;28;11234;-69
2023/07/29 00:47:32;;;;;;;1.02;0.80;;;;;;;20.18;97.08;98939.88;340507;28;4495;-66
2023/07/29 00:47:45;;;;;;;0.90;0.70;;;;;;;20.19;97.14;98931.84;339310;28;17567;-68
2023/07/29 00:47:57;;;;;;;1.17;0.70;;;;;;;20.20;97.02;98933.50;332225;28;18308;-68
2023/07/29 00:48:10;;;;;;;0.90;0.60;;;;;;;20.21;96.97;98935.19;338235;28;6292;-68
2023/07/29 00:48:22;;;;;;;0.50;0.50;;;;;;;20.21;97.07;98937.00;339590;28;4649;-66
2023/07/29 00:48:34;;;;;;;0.50;0.50;;;;;;;20.22;96.95;98925.44;338101;28;5325;-66
2023/07/29 00:48:46;;;;;;;0.50;0.50;;;;;;;20.23;96.69;98927.97;336377;28;17541;-67
2023/07/29 00:48:59;;;;;;;0.60;0.50;;;;;;;20.23;96.44;98922.69;339555;28;5598;-68
2023/07/29 00:49:10;;;;;;;0.95;0.70;;;;;;;20.24;96.81;98926.16;337272;28;17013;-69
2023/07/29 00:49:23;;;;;;;0.90;0.80;;;;;;;20.25;96.90;98931.31;339345;28;5164;-68
2023/07/29 00:49:35;;;;;;;0.77;0.77;;;;;;;20.26;96.55;98927.72;337755;28;11742;-69
2023/07/29 00:49:47;;;;;;;0.52;0.52;;;;;;;20.26;96.53;98927.72;338940;28;4731;-68
2023/07/29 00:49:59;;;;;;;0.50;0.50;;;;;;;20.27;96.33;98929.38;339957;28;4838;-68
2023/07/29 00:50:12;;;;;;;0.57;0.57;;;;;;;20.27;96.58;98924.09;336435;28;18269;-69
2023/07/29 00:50:25;;;;;;;0.63;0.63;;;;;;;20.26;96.58;98922.44;340282;28;4642;-68
2023/07/29 00:50:37;;;;;;;1.13;0.60;;;;;;;20.26;96.52;98922.44;336976;28;17884;-68
2023/07/29 00:50:50;;;;;;;1.30;0.57;;;;;;;20.27;96.55;98928.56;340012;28;5255;-67
2023/07/29 00:51:02;;;;;;;1.33;0.60;;;;;;;20.27;96.46;98924.09;337749;28;17687;-68
2023/07/29 00:51:14;;;;;;;0.80;0.63;;;;;;;20.28;96.91;98925.78;339935;28;5428;-66
2023/07/29 00:51:26;;;;;;;0.73;0.60;;;;;;;20.31;96.62;98924.69;336923;28;18353;-67
2023/07/29 00:51:38;;;;;;;0.45;0.43;;;;;;;20.32;96.23;98929.84;338536;28;4864;-68
2023/07/29 00:51:50;;;;;;;0.40;0.40;;;;;;;20.33;96.49;98926.22;339121;28;5301;-68
2023/07/29 00:52:02;;;;;;;0.40;0.40;;;;;;;20.36;96.57;98922.47;337566;28;17861;-68
2023/07/29 00:52:15;;;;;;;0.60;0.52;;;;;;;20.37;96.21;98925.97;341096;28;5028;-68
2023/07/29 00:52:26;;;;;;;0.70;0.60;;;;;;;20.39;96.18;98926.69;338347;28;12123;-69
2023/07/29 00:52:39;;;;;;;1.15;0.57;;;;;;;20.38;96.38;98925.81;338023;28;18371;-68
2023/07/29 00:52:51;;;;;;;1.70;0.60;;;;;;;20.37;96.38;98926.81;339144;28;4603;-67
2023/07/29 00:53:03;;;;;;;1.60;0.50;;;;;;;20.35;96.78;98926.94;337457;28;18380;-68
2023/07/29 00:53:15;;;;;;;0.90;0.60;;;;;;;20.34;96.66;98930.56;340113;28;4872;-67
2023/07/29 00:53:27;;;;;;;0.88;0.57;;;;;;;20.37;96.30;98933.91;336562;28;18009;-67
2023/07/29 00:53:39;;;;;;;0.90;0.52;;;;;;;20.37;96.22;98926.81;339765;28;5173;-67
2023/07/29 00:53:51;;;;;;;0.60;0.50;;;;;;;20.37;96.16;98928.63;334704;28;5158;-66
2023/07/29 00:54:03;;;;;;;0.70;0.50;;;;;;;20.39;96.10;98929.31;337650;28;18061;-66
2023/07/29 00:54:16;;;;;;;0.52;0.50;;;;;;;20.38;95.93;98925.00;339993;28;4798;-67
2023/07/29 00:54:28;;;;;;;0.50;0.50;;;;;;;20.39;95.86;98932.78;337624;28;18108;-68
2023/07/29 00:54:40;;;;;;;0.43;0.43;;;;;;;20.38;95.79;98930.28;339595;28;5171;-67
2023/07/29 00:54:52;;;;;;;0.50;0.50;;;;;;;20.38;95.84;98930.28;337074;28;18187;-68
2023/07/29 00:55:06;;;;;;;0.60;0.50;;;;;;;20.38;96.07;98928.47;339691;28;6942;-67
2023/07/29 00:55:18;;;;;;;0.60;0.50;;;;;;;20.39;96.32;98926.69;337282;28;17936;-68
2023/07/29 00:55:30;;;;;;;0.50;0.50;;;;;;;20.39;96.10;98931.97;335340;28;4680;-67
2023/07/29 00:55:43;;;;;;;0.47;0.47;;;;;;;20.38;96.00;98931.09;340115;28;4605;-67
2023/07/29 00:55:55;;;;;;;0.70;0.60;;;;;;;20.35;95.67;98926.94;336985;28;18465;-67
2023/07/29 00:56:07;;;;;;;0.60;0.55;;;;;;;20.35;95.90;98926.09;339939;28;4709;-67
2023/07/29 00:56:19;;;;;;;0.70;0.60;;;;;;;20.35;96.10;98928.75;337424;28;19342;-67
2023/07/29 00:56:31;;;;;;;0.70;0.50;;;;;;;20.31;96.35;98925.50;340182;28;5193;-67
2023/07/29 00:56:43;;;;;;;0.70;0.50;;;;;;;20.31;96.28;98925.50;338358;28;11734;-68
2023/07/29 00:56:55;;;;;;;0.50;0.50;;;;;;;20.31;96.04;98932.59;337264;28;18263;-67
2023/07/29 00:57:09;;;;;;;0.65;0.65;;;;;;;20.31;96.17;98925.50;339672;28;4507;-67
2023/07/29 00:57:23;;;;;;;0.95;0.85;;;;;;;20.30;95.87;98923.84;336979;28;18110;-67
2023/07/29 00:57:35;;;;;;;1.00;0.80;;;;;;;20.31;96.14;98925.50;337362;28;18070;-67
2023/07/29 00:57:49;;;;;;;0.70;0.60;;;;;;;20.29;96.29;98932.72;338854;28;4587;-68
2023/07/29 00:58:01;;;;;;;0.63;0.52;;;;;;;20.29;96.16;98924.81;337795;28;17873;-67
2023/07/29 00:58:13;;;;;;;0.75;0.60;;;;;;;20.30;95.95;98926.50;339389;28;4693;-67
2023/07/29 00:58:25;;;;;;;0.70;0.70;;;;;;;20.29;96.17;98922.16;337009;28;18304;-67
2023/07/29 00:58:37;;;;;;;0.70;0.70;;;;;;;20.28;96.06;98925.78;340002;28;5591;-67
2023/07/29 00:58:51;;;;;;;1.00;0.70;;;;;;;20.27;96.13;98923.28;337329;28;4587;-66
2023/07/29 00:59:04;;;;;;;1.00;0.70;;;;;;;20.27;96.26;98926.75;340198;28;4707;-67
2023/07/29 00:59:16;;;;;;;0.65;0.60;;;;;;;20.27;95.74;98924.09;335816;28;18115;-66
2023/07/29 00:59:30;;;;;;;0.60;0.60;;;;;;;20.26;96.10;98922.44;338579;28;5694;-67